createdAt,value
2023-01-18T00:00:02.839Z,0
2023-01-18T00:15:02.401Z,0
2023-01-18T00:30:02.717Z,0
2023-01-18T00:45:03.157Z,0
2023-01-18T01:00:02.594Z,0
2023-01-18T01:15:03.042Z,0
2023-01-18T01:30:02.468Z,0
2023-01-18T01:45:02.914Z,0
2023-01-18T02:00:02.437Z,0
2023-01-18T02:15:02.766Z,0
2023-01-18T02:30:02.424Z,0
2023-01-18T02:45:02.649Z,0
2023-01-18T03:00:03.123Z,0
2023-01-18T03:15:02.562Z,0
2023-01-18T03:30:02.989Z,0
2023-01-18T03:45:02.465Z,0
2023-01-18T04:00:02.862Z,0
2023-01-18T04:15:02.488Z,0
2023-01-18T04:30:02.747Z,0
2023-01-18T04:45:03.196Z,0
2023-01-18T05:00:02.637Z,0
2023-01-18T05:15:03.098Z,0
2023-01-18T05:30:03.079Z,0
2023-01-18T05:45:02.963Z,0
2023-01-18T06:00:02.499Z,0
2023-01-18T06:15:02.855Z,0
2023-01-18T06:30:02.437Z,0
2023-01-18T06:45:02.689Z,0
2023-01-18T07:00:03.121Z,0
2023-01-18T07:15:16.299Z,0
2023-01-18T07:30:03.010Z,0
2023-01-18T07:45:02.518Z,0
2023-01-18T08:00:02.895Z,3
2023-01-18T08:15:02.530Z,9
2023-01-18T08:30:02.763Z,16
2023-01-18T08:45:03.207Z,21
2023-01-18T09:00:02.622Z,38
2023-01-18T09:15:03.070Z,41
2023-01-18T09:30:02.537Z,60
2023-01-18T09:45:02.943Z,61
2023-01-18T10:00:02.548Z,65
2023-01-18T10:15:02.849Z,90
2023-01-18T10:30:02.320Z,98
2023-01-18T10:45:02.747Z,139
2023-01-18T11:00:03.172Z,160
2023-01-18T11:15:02.588Z,118
2023-01-18T11:30:03.068Z,272
2023-01-18T11:45:02.591Z,185
2023-01-18T12:00:02.906Z,272
2023-01-18T12:15:02.552Z,258
2023-01-18T12:30:02.783Z,239
2023-01-18T12:45:03.223Z,204
2023-01-18T13:00:02.771Z,209
2023-01-18T13:15:03.107Z,193
2023-01-18T13:30:02.627Z,171
2023-01-18T13:45:02.977Z,152
2023-01-18T14:00:02.650Z,131
2023-01-18T14:15:02.834Z,107
2023-01-18T14:30:02.268Z,84
2023-01-18T14:45:02.710Z,62
2023-01-18T15:00:03.152Z,43
2023-01-18T15:15:02.634Z,23
2023-01-18T15:30:03.028Z,1
2023-01-18T15:45:02.643Z,0
2023-01-18T16:00:02.908Z,0
2023-01-18T16:15:02.345Z,0
2023-01-18T16:30:02.786Z,0
2023-01-18T16:45:03.219Z,0
2023-01-18T17:00:02.685Z,0
2023-01-18T17:15:03.107Z,0
2023-01-18T17:30:02.751Z,0
2023-01-18T17:45:03.010Z,0
2023-01-18T18:00:02.746Z,0
2023-01-18T18:15:02.875Z,0
2023-01-18T18:30:02.306Z,0
2023-01-18T18:45:02.770Z,0
2023-01-18T19:00:03.177Z,0
2023-01-18T19:15:02.684Z,0
2023-01-18T19:30:03.063Z,0
2023-01-18T19:45:04.822Z,0
2023-01-18T20:15:02.425Z,0
2023-01-18T20:30:02.805Z,0
2023-01-18T20:45:03.254Z,0
2023-01-18T21:00:02.721Z,0
2023-01-18T21:15:03.116Z,0
2023-01-18T21:30:02.711Z,0
2023-01-18T21:45:02.991Z,0
2023-01-18T22:00:02.421Z,0
2023-01-18T22:15:03.132Z,0
2023-01-18T22:45:02.747Z,0
2023-01-18T23:00:03.147Z,0
2023-01-18T23:15:02.755Z,0
2023-01-18T23:30:03.135Z,0
2023-01-18T23:45:02.457Z,0
